sensor_id;sensor_type;location;lat;lon;timestamp;P1;durP1;ratioP1;P2;durP2;ratioP2
1721;SDS011;858;53.190;8.596;2023-04-25T00:00:47;23.88;;;5.90;;
1721;SDS011;858;53.190;8.596;2023-04-25T00:03:13;17.75;;;6.30;;
1721;SDS011;858;53.190;8.596;2023-04-25T00:05:40;23.65;;;6.80;;
1721;SDS011;858;53.190;8.596;2023-04-25T00:08:07;27.75;;;6.78;;
1721;SDS011;858;53.190;8.596;2023-04-25T00:10:34;23.10;;;6.68;;
1721;SDS011;858;53.190;8.596;2023-04-25T00:13:00;26.52;;;7.00;;
1721;SDS011;858;53.190;8.596;2023-04-25T00:15:29;19.40;;;6.50;;
1721;SDS011;858;53.190;8.596;2023-04-25T00:17:57;23.15;;;6.97;;
1721;SDS011;858;53.190;8.596;2023-04-25T00:20:23;19.63;;;6.07;;
1721;SDS011;858;53.190;8.596;2023-04-25T00:22:50;24.63;;;6.23;;
1721;SDS011;858;53.190;8.596;2023-04-25T00:25:19;20.65;;;7.03;;
1721;SDS011;858;53.190;8.596;2023-04-25T00:27:45;20.05;;;5.85;;
1721;SDS011;858;53.190;8.596;2023-04-25T00:30:12;21.17;;;7.00;;
1721;SDS011;858;53.190;8.596;2023-04-25T00:32:39;25.73;;;7.30;;
1721;SDS011;858;53.190;8.596;2023-04-25T00:35:05;26.70;;;6.15;;
1721;SDS011;858;53.190;8.596;2023-04-25T00:37:31;24.55;;;7.00;;
1721;SDS011;858;53.190;8.596;2023-04-25T00:39:58;25.10;;;7.10;;
1721;SDS011;858;53.190;8.596;2023-04-25T00:42:26;20.95;;;6.22;;
1721;SDS011;858;53.190;8.596;2023-04-25T00:44:53;24.75;;;7.00;;
1721;SDS011;858;53.190;8.596;2023-04-25T00:47:20;22.45;;;6.50;;
1721;SDS011;858;53.190;8.596;2023-04-25T00:49:46;22.40;;;6.68;;
1721;SDS011;858;53.190;8.596;2023-04-25T00:52:13;21.92;;;5.97;;
1721;SDS011;858;53.190;8.596;2023-04-25T00:54:39;26.42;;;6.90;;
1721;SDS011;858;53.190;8.596;2023-04-25T00:57:06;26.33;;;6.90;;
1721;SDS011;858;53.190;8.596;2023-04-25T00:59:35;27.40;;;7.40;;
1721;SDS011;858;53.190;8.596;2023-04-25T01:02:02;23.50;;;6.00;;
1721;SDS011;858;53.190;8.596;2023-04-25T01:04:28;21.27;;;6.63;;
1721;SDS011;858;53.190;8.596;2023-04-25T01:06:54;25.88;;;7.10;;
1721;SDS011;858;53.190;8.596;2023-04-25T01:09:21;23.57;;;6.57;;
1721;SDS011;858;53.190;8.596;2023-04-25T01:11:48;23.93;;;7.17;;
1721;SDS011;858;53.190;8.596;2023-04-25T01:14:15;26.95;;;7.50;;
1721;SDS011;858;53.190;8.596;2023-04-25T01:16:42;28.55;;;7.13;;
1721;SDS011;858;53.190;8.596;2023-04-25T01:19:10;22.07;;;6.50;;
1721;SDS011;858;53.190;8.596;2023-04-25T01:21:38;23.50;;;6.87;;
1721;SDS011;858;53.190;8.596;2023-04-25T01:24:05;17.05;;;5.82;;
1721;SDS011;858;53.190;8.596;2023-04-25T01:26:32;23.13;;;5.70;;
1721;SDS011;858;53.190;8.596;2023-04-25T01:28:59;20.52;;;6.30;;
1721;SDS011;858;53.190;8.596;2023-04-25T01:31:26;18.00;;;5.90;;
1721;SDS011;858;53.190;8.596;2023-04-25T01:33:52;22.92;;;6.20;;
1721;SDS011;858;53.190;8.596;2023-04-25T01:36:19;28.23;;;7.50;;
1721;SDS011;858;53.190;8.596;2023-04-25T01:38:47;22.17;;;6.15;;
1721;SDS011;858;53.190;8.596;2023-04-25T01:41:14;17.05;;;5.97;;
1721;SDS011;858;53.190;8.596;2023-04-25T01:43:40;22.83;;;7.13;;
1721;SDS011;858;53.190;8.596;2023-04-25T01:46:06;21.63;;;6.63;;
1721;SDS011;858;53.190;8.596;2023-04-25T01:48:34;25.60;;;6.80;;
1721;SDS011;858;53.190;8.596;2023-04-25T01:51:01;23.85;;;7.10;;
1721;SDS011;858;53.190;8.596;2023-04-25T01:53:27;17.83;;;6.67;;
1721;SDS011;858;53.190;8.596;2023-04-25T01:55:55;28.10;;;7.35;;
1721;SDS011;858;53.190;8.596;2023-04-25T01:58:21;17.60;;;6.38;;
1721;SDS011;858;53.190;8.596;2023-04-25T02:00:47;22.48;;;7.50;;
1721;SDS011;858;53.190;8.596;2023-04-25T02:03:14;20.55;;;5.75;;
1721;SDS011;858;53.190;8.596;2023-04-25T02:05:41;22.30;;;6.68;;
1721;SDS011;858;53.190;8.596;2023-04-25T02:08:08;23.48;;;6.50;;
1721;SDS011;858;53.190;8.596;2023-04-25T02:10:34;18.58;;;6.57;;
1721;SDS011;858;53.190;8.596;2023-04-25T02:13:03;23.40;;;6.40;;
1721;SDS011;858;53.190;8.596;2023-04-25T02:15:32;19.10;;;6.57;;
1721;SDS011;858;53.190;8.596;2023-04-25T02:17:58;22.08;;;6.80;;
1721;SDS011;858;53.190;8.596;2023-04-25T02:20:25;26.33;;;6.97;;
1721;SDS011;858;53.190;8.596;2023-04-25T02:22:52;20.42;;;6.57;;
1721;SDS011;858;53.190;8.596;2023-04-25T02:25:18;24.27;;;6.80;;
1721;SDS011;858;53.190;8.596;2023-04-25T02:27:45;17.87;;;6.70;;
1721;SDS011;858;53.190;8.596;2023-04-25T02:30:13;19.65;;;6.57;;
1721;SDS011;858;53.190;8.596;2023-04-25T02:32:40;24.48;;;6.93;;
1721;SDS011;858;53.190;8.596;2023-04-25T02:35:06;24.40;;;6.57;;
1721;SDS011;858;53.190;8.596;2023-04-25T02:37:33;24.55;;;6.65;;
1721;SDS011;858;53.190;8.596;2023-04-25T02:40:00;18.52;;;6.20;;
1721;SDS011;858;53.190;8.596;2023-04-25T02:42:28;22.63;;;6.57;;
1721;SDS011;858;53.190;8.596;2023-04-25T02:44:54;20.58;;;5.80;;
1721;SDS011;858;53.190;8.596;2023-04-25T02:47:22;19.73;;;5.95;;
1721;SDS011;858;53.190;8.596;2023-04-25T02:49:48;22.10;;;5.22;;
1721;SDS011;858;53.190;8.596;2023-04-25T02:52:15;20.50;;;6.25;;
1721;SDS011;858;53.190;8.596;2023-04-25T02:54:41;20.65;;;5.50;;
1721;SDS011;858;53.190;8.596;2023-04-25T02:57:08;23.23;;;5.95;;
1721;SDS011;858;53.190;8.596;2023-04-25T02:59:35;18.98;;;6.45;;
1721;SDS011;858;53.190;8.596;2023-04-25T03:02:01;23.33;;;5.90;;
1721;SDS011;858;53.190;8.596;2023-04-25T03:04:29;20.80;;;5.55;;
1721;SDS011;858;53.190;8.596;2023-04-25T03:06:56;18.80;;;5.50;;
1721;SDS011;858;53.190;8.596;2023-04-25T03:09:22;21.40;;;6.00;;
1721;SDS011;858;53.190;8.596;2023-04-25T03:11:49;17.88;;;6.50;;
1721;SDS011;858;53.190;8.596;2023-04-25T03:14:15;17.27;;;5.38;;
1721;SDS011;858;53.190;8.596;2023-04-25T03:16:42;20.92;;;5.32;;
1721;SDS011;858;53.190;8.596;2023-04-25T03:19:08;23.95;;;6.00;;
1721;SDS011;858;53.190;8.596;2023-04-25T03:21:36;26.08;;;6.40;;
1721;SDS011;858;53.190;8.596;2023-04-25T03:24:03;23.48;;;6.10;;
1721;SDS011;858;53.190;8.596;2023-04-25T03:26:30;25.00;;;6.20;;
1721;SDS011;858;53.190;8.596;2023-04-25T03:28:57;25.48;;;6.18;;
1721;SDS011;858;53.190;8.596;2023-04-25T03:31:23;22.13;;;6.00;;
1721;SDS011;858;53.190;8.596;2023-04-25T03:33:49;21.35;;;5.28;;
1721;SDS011;858;53.190;8.596;2023-04-25T03:36:16;23.35;;;5.68;;
1721;SDS011;858;53.190;8.596;2023-04-25T03:38:44;20.27;;;5.68;;
1721;SDS011;858;53.190;8.596;2023-04-25T03:41:10;20.42;;;5.68;;
1721;SDS011;858;53.190;8.596;2023-04-25T03:43:38;18.67;;;5.68;;
1721;SDS011;858;53.190;8.596;2023-04-25T03:46:04;25.80;;;6.45;;
1721;SDS011;858;53.190;8.596;2023-04-25T03:48:31;26.65;;;5.72;;
1721;SDS011;858;53.190;8.596;2023-04-25T03:50:58;18.40;;;5.40;;
1721;SDS011;858;53.190;8.596;2023-04-25T03:53:25;18.90;;;5.50;;
1721;SDS011;858;53.190;8.596;2023-04-25T03:55:53;17.73;;;5.65;;
1721;SDS011;858;53.190;8.596;2023-04-25T03:58:19;21.98;;;5.78;;
1721;SDS011;858;53.190;8.596;2023-04-25T04:00:45;17.15;;;5.15;;
1721;SDS011;858;53.190;8.596;2023-04-25T04:03:12;18.65;;;5.70;;
1721;SDS011;858;53.190;8.596;2023-04-25T04:05:38;18.63;;;5.78;;
1721;SDS011;858;53.190;8.596;2023-04-25T04:08:05;17.70;;;5.60;;
1721;SDS011;858;53.190;8.596;2023-04-25T04:10:31;16.05;;;5.20;;
1721;SDS011;858;53.190;8.596;2023-04-25T04:12:59;17.73;;;4.72;;
1721;SDS011;858;53.190;8.596;2023-04-25T04:15:26;14.52;;;4.55;;
1721;SDS011;858;53.190;8.596;2023-04-25T04:17:52;18.70;;;4.80;;
1721;SDS011;858;53.190;8.596;2023-04-25T04:20:19;15.90;;;4.10;;
1721;SDS011;858;53.190;8.596;2023-04-25T04:22:46;14.77;;;4.30;;
1721;SDS011;858;53.190;8.596;2023-04-25T04:25:12;16.77;;;4.25;;
1721;SDS011;858;53.190;8.596;2023-04-25T04:27:39;17.70;;;4.33;;
1721;SDS011;858;53.190;8.596;2023-04-25T04:30:07;12.73;;;3.78;;
1721;SDS011;858;53.190;8.596;2023-04-25T04:32:34;11.50;;;3.70;;
1721;SDS011;858;53.190;8.596;2023-04-25T04:35:02;12.88;;;4.00;;
1721;SDS011;858;53.190;8.596;2023-04-25T04:37:29;16.00;;;4.40;;
1721;SDS011;858;53.190;8.596;2023-04-25T04:39:56;14.98;;;4.38;;
1721;SDS011;858;53.190;8.596;2023-04-25T04:42:22;12.82;;;4.57;;
1721;SDS011;858;53.190;8.596;2023-04-25T04:44:50;19.17;;;4.93;;
1721;SDS011;858;53.190;8.596;2023-04-25T04:47:18;15.50;;;4.35;;
1721;SDS011;858;53.190;8.596;2023-04-25T04:49:45;13.68;;;4.40;;
1721;SDS011;858;53.190;8.596;2023-04-25T04:52:11;13.73;;;4.47;;
1721;SDS011;858;53.190;8.596;2023-04-25T04:54:38;16.13;;;4.50;;
1721;SDS011;858;53.190;8.596;2023-04-25T04:57:04;13.32;;;4.80;;
1721;SDS011;858;53.190;8.596;2023-04-25T04:59:31;17.13;;;3.80;;
1721;SDS011;858;53.190;8.596;2023-04-25T05:01:57;17.25;;;4.35;;
1721;SDS011;858;53.190;8.596;2023-04-25T05:04:25;18.75;;;4.95;;
1721;SDS011;858;53.190;8.596;2023-04-25T05:06:51;15.65;;;4.38;;
1721;SDS011;858;53.190;8.596;2023-04-25T05:09:17;15.90;;;4.40;;
1721;SDS011;858;53.190;8.596;2023-04-25T05:11:44;15.77;;;4.82;;
1721;SDS011;858;53.190;8.596;2023-04-25T05:14:10;11.10;;;3.42;;
1721;SDS011;858;53.190;8.596;2023-04-25T05:16:37;17.02;;;3.95;;
1721;SDS011;858;53.190;8.596;2023-04-25T05:19:03;14.93;;;4.10;;
1721;SDS011;858;53.190;8.596;2023-04-25T05:21:31;15.55;;;4.75;;
1721;SDS011;858;53.190;8.596;2023-04-25T05:23:57;13.60;;;3.70;;
1721;SDS011;858;53.190;8.596;2023-04-25T05:26:24;14.13;;;4.10;;
1721;SDS011;858;53.190;8.596;2023-04-25T05:28:51;14.48;;;4.10;;
1721;SDS011;858;53.190;8.596;2023-04-25T05:31:17;17.52;;;4.35;;
1721;SDS011;858;53.190;8.596;2023-04-25T05:33:43;12.00;;;3.60;;
1721;SDS011;858;53.190;8.596;2023-04-25T05:36:10;11.13;;;4.10;;
1721;SDS011;858;53.190;8.596;2023-04-25T05:38:41;14.70;;;3.70;;
1721;SDS011;858;53.190;8.596;2023-04-25T05:41:08;12.02;;;3.95;;
1721;SDS011;858;53.190;8.596;2023-04-25T05:43:34;13.10;;;4.00;;
1721;SDS011;858;53.190;8.596;2023-04-25T05:46:00;15.00;;;4.72;;
1721;SDS011;858;53.190;8.596;2023-04-25T05:48:27;16.85;;;4.50;;
1721;SDS011;858;53.190;8.596;2023-04-25T05:50:53;18.60;;;3.50;;
1721;SDS011;858;53.190;8.596;2023-04-25T05:53:20;13.23;;;3.50;;
1721;SDS011;858;53.190;8.596;2023-04-25T05:55:48;17.13;;;3.92;;
1721;SDS011;858;53.190;8.596;2023-04-25T05:58:14;15.13;;;4.23;;
1721;SDS011;858;53.190;8.596;2023-04-25T06:00:40;12.55;;;3.58;;
1721;SDS011;858;53.190;8.596;2023-04-25T06:03:07;11.20;;;4.00;;
1721;SDS011;858;53.190;8.596;2023-04-25T06:05:34;15.60;;;3.88;;
1721;SDS011;858;53.190;8.596;2023-04-25T06:08:01;13.05;;;3.50;;
1721;SDS011;858;53.190;8.596;2023-04-25T06:10:27;13.98;;;4.20;;
1721;SDS011;858;53.190;8.596;2023-04-25T06:12:55;10.88;;;3.28;;
1721;SDS011;858;53.190;8.596;2023-04-25T06:15:21;14.93;;;4.30;;
1721;SDS011;858;53.190;8.596;2023-04-25T06:17:47;7.68;;;3.03;;
1721;SDS011;858;53.190;8.596;2023-04-25T06:20:14;12.00;;;3.40;;
1721;SDS011;858;53.190;8.596;2023-04-25T06:22:40;13.98;;;3.25;;
1721;SDS011;858;53.190;8.596;2023-04-25T06:25:07;12.70;;;3.67;;
1721;SDS011;858;53.190;8.596;2023-04-25T06:27:34;16.52;;;3.90;;
1721;SDS011;858;53.190;8.596;2023-04-25T06:30:01;11.75;;;3.50;;
1721;SDS011;858;53.190;8.596;2023-04-25T06:32:29;9.68;;;3.50;;
1721;SDS011;858;53.190;8.596;2023-04-25T06:34:55;12.68;;;3.25;;
1721;SDS011;858;53.190;8.596;2023-04-25T06:37:23;11.27;;;3.10;;
1721;SDS011;858;53.190;8.596;2023-04-25T06:39:49;12.48;;;3.50;;
1721;SDS011;858;53.190;8.596;2023-04-25T06:42:15;10.73;;;3.03;;
1721;SDS011;858;53.190;8.596;2023-04-25T06:44:42;12.68;;;3.20;;
1721;SDS011;858;53.190;8.596;2023-04-25T06:47:10;14.50;;;3.42;;
1721;SDS011;858;53.190;8.596;2023-04-25T06:49:36;17.73;;;4.20;;
1721;SDS011;858;53.190;8.596;2023-04-25T06:52:04;11.43;;;3.70;;
1721;SDS011;858;53.190;8.596;2023-04-25T06:54:30;15.73;;;4.10;;
1721;SDS011;858;53.190;8.596;2023-04-25T06:56:56;17.20;;;4.18;;
1721;SDS011;858;53.190;8.596;2023-04-25T06:59:23;12.77;;;3.60;;
1721;SDS011;858;53.190;8.596;2023-04-25T07:01:49;11.55;;;3.70;;
1721;SDS011;858;53.190;8.596;2023-04-25T07:04:17;12.10;;;3.20;;
1721;SDS011;858;53.190;8.596;2023-04-25T07:06:43;7.95;;;2.83;;
1721;SDS011;858;53.190;8.596;2023-04-25T07:09:11;10.57;;;3.72;;
1721;SDS011;858;53.190;8.596;2023-04-25T07:11:38;13.02;;;3.10;;
1721;SDS011;858;53.190;8.596;2023-04-25T07:14:04;10.05;;;2.90;;
1721;SDS011;858;53.190;8.596;2023-04-25T07:16:31;11.57;;;2.85;;
1721;SDS011;858;53.190;8.596;2023-04-25T07:18:57;10.17;;;3.40;;
1721;SDS011;858;53.190;8.596;2023-04-25T07:21:25;12.80;;;3.15;;
1721;SDS011;858;53.190;8.596;2023-04-25T07:23:52;9.70;;;2.90;;
1721;SDS011;858;53.190;8.596;2023-04-25T07:26:19;10.55;;;2.80;;
1721;SDS011;858;53.190;8.596;2023-04-25T07:28:45;10.55;;;2.83;;
1721;SDS011;858;53.190;8.596;2023-04-25T07:31:14;10.82;;;2.67;;
1721;SDS011;858;53.190;8.596;2023-04-25T07:33:42;11.18;;;2.80;;
1721;SDS011;858;53.190;8.596;2023-04-25T07:36:08;14.07;;;3.40;;
1721;SDS011;858;53.190;8.596;2023-04-25T07:38:36;6.88;;;2.80;;
1721;SDS011;858;53.190;8.596;2023-04-25T07:41:02;13.13;;;3.30;;
1721;SDS011;858;53.190;8.596;2023-04-25T07:43:29;11.60;;;2.92;;
1721;SDS011;858;53.190;8.596;2023-04-25T07:45:55;9.88;;;2.92;;
1721;SDS011;858;53.190;8.596;2023-04-25T07:48:22;5.95;;;2.70;;
1721;SDS011;858;53.190;8.596;2023-04-25T07:50:48;10.60;;;2.88;;
1721;SDS011;858;53.190;8.596;2023-04-25T07:53:15;8.38;;;2.42;;
1721;SDS011;858;53.190;8.596;2023-04-25T07:55:44;6.78;;;2.33;;
1721;SDS011;858;53.190;8.596;2023-04-25T07:58:11;12.27;;;3.00;;
1721;SDS011;858;53.190;8.596;2023-04-25T08:00:37;7.93;;;2.53;;
1721;SDS011;858;53.190;8.596;2023-04-25T08:03:04;11.93;;;3.20;;
1721;SDS011;858;53.190;8.596;2023-04-25T08:05:31;11.45;;;2.83;;
1721;SDS011;858;53.190;8.596;2023-04-25T08:07:58;10.13;;;3.30;;
1721;SDS011;858;53.190;8.596;2023-04-25T08:10:24;13.73;;;2.95;;
1721;SDS011;858;53.190;8.596;2023-04-25T08:12:52;11.15;;;2.70;;
1721;SDS011;858;53.190;8.596;2023-04-25T08:15:19;9.20;;;3.13;;
1721;SDS011;858;53.190;8.596;2023-04-25T08:17:45;12.77;;;2.92;;
1721;SDS011;858;53.190;8.596;2023-04-25T08:20:13;10.57;;;3.30;;
1721;SDS011;858;53.190;8.596;2023-04-25T08:22:39;13.02;;;2.80;;
1721;SDS011;858;53.190;8.596;2023-04-25T08:25:07;11.82;;;2.90;;
1721;SDS011;858;53.190;8.596;2023-04-25T08:27:33;10.45;;;2.75;;
1721;SDS011;858;53.190;8.596;2023-04-25T08:30:01;11.13;;;3.10;;
1721;SDS011;858;53.190;8.596;2023-04-25T08:32:28;7.57;;;1.90;;
1721;SDS011;858;53.190;8.596;2023-04-25T08:34:55;5.88;;;2.20;;
1721;SDS011;858;53.190;8.596;2023-04-25T08:37:21;9.45;;;2.00;;
1721;SDS011;858;53.190;8.596;2023-04-25T08:39:48;8.10;;;2.60;;
1721;SDS011;858;53.190;8.596;2023-04-25T08:42:17;13.75;;;2.30;;
1721;SDS011;858;53.190;8.596;2023-04-25T08:44:43;7.65;;;2.50;;
1721;SDS011;858;53.190;8.596;2023-04-25T08:47:12;5.07;;;1.93;;
1721;SDS011;858;53.190;8.596;2023-04-25T08:49:38;6.18;;;2.00;;
1721;SDS011;858;53.190;8.596;2023-04-25T08:52:05;9.82;;;2.35;;
1721;SDS011;858;53.190;8.596;2023-04-25T08:54:35;4.15;;;1.65;;
1721;SDS011;858;53.190;8.596;2023-04-25T08:57:02;6.82;;;1.77;;
1721;SDS011;858;53.190;8.596;2023-04-25T08:59:30;8.95;;;2.50;;
1721;SDS011;858;53.190;8.596;2023-04-25T09:01:56;10.68;;;2.42;;
1721;SDS011;858;53.190;8.596;2023-04-25T09:04:24;9.95;;;2.72;;
1721;SDS011;858;53.190;8.596;2023-04-25T09:06:51;13.18;;;2.65;;
1721;SDS011;858;53.190;8.596;2023-04-25T09:09:18;9.05;;;2.25;;
1721;SDS011;858;53.190;8.596;2023-04-25T09:11:44;4.97;;;1.90;;
1721;SDS011;858;53.190;8.596;2023-04-25T09:14:11;8.77;;;3.00;;
1721;SDS011;858;53.190;8.596;2023-04-25T09:19:20;7.82;;;2.50;;
1721;SDS011;858;53.190;8.596;2023-04-25T09:21:49;7.72;;;1.95;;
1721;SDS011;858;53.190;8.596;2023-04-25T09:24:16;9.13;;;2.33;;
1721;SDS011;858;53.190;8.596;2023-04-25T09:26:45;7.75;;;2.50;;
1721;SDS011;858;53.190;8.596;2023-04-25T09:29:12;8.40;;;1.70;;
1721;SDS011;858;53.190;8.596;2023-04-25T09:31:39;6.10;;;1.77;;
1721;SDS011;858;53.190;8.596;2023-04-25T09:34:05;7.28;;;2.03;;
1721;SDS011;858;53.190;8.596;2023-04-25T09:36:31;5.80;;;1.85;;
1721;SDS011;858;53.190;8.596;2023-04-25T09:39:01;4.07;;;2.30;;
1721;SDS011;858;53.190;8.596;2023-04-25T09:41:28;4.05;;;1.90;;
1721;SDS011;858;53.190;8.596;2023-04-25T09:43:57;4.87;;;1.80;;
1721;SDS011;858;53.190;8.596;2023-04-25T09:46:24;8.70;;;2.22;;
1721;SDS011;858;53.190;8.596;2023-04-25T09:48:50;8.60;;;1.73;;
1721;SDS011;858;53.190;8.596;2023-04-25T09:51:18;6.50;;;1.80;;
1721;SDS011;858;53.190;8.596;2023-04-25T09:53:46;5.57;;;1.97;;
1721;SDS011;858;53.190;8.596;2023-04-25T09:56:16;6.78;;;1.60;;
1721;SDS011;858;53.190;8.596;2023-04-25T09:58:44;4.95;;;1.70;;
1721;SDS011;858;53.190;8.596;2023-04-25T10:01:13;5.70;;;1.40;;
1721;SDS011;858;53.190;8.596;2023-04-25T10:03:40;9.10;;;1.92;;
1721;SDS011;858;53.190;8.596;2023-04-25T10:06:07;4.20;;;1.77;;
1721;SDS011;858;53.190;8.596;2023-04-25T10:08:35;6.65;;;1.80;;
1721;SDS011;858;53.190;8.596;2023-04-25T10:11:03;6.32;;;2.00;;
1721;SDS011;858;53.190;8.596;2023-04-25T10:13:31;6.73;;;1.80;;
1721;SDS011;858;53.190;8.596;2023-04-25T10:15:57;6.30;;;2.00;;
1721;SDS011;858;53.190;8.596;2023-04-25T10:18:25;10.05;;;2.20;;
1721;SDS011;858;53.190;8.596;2023-04-25T10:20:52;3.35;;;1.83;;
1721;SDS011;858;53.190;8.596;2023-04-25T10:23:20;7.25;;;2.17;;
1721;SDS011;858;53.190;8.596;2023-04-25T10:25:46;7.30;;;2.10;;
1721;SDS011;858;53.190;8.596;2023-04-25T10:28:13;7.85;;;2.00;;
1721;SDS011;858;53.190;8.596;2023-04-25T10:30:50;8.32;;;1.70;;
1721;SDS011;858;53.190;8.596;2023-04-25T10:33:28;8.02;;;1.70;;
1721;SDS011;858;53.190;8.596;2023-04-25T10:35:57;6.90;;;1.70;;
1721;SDS011;858;53.190;8.596;2023-04-25T10:38:24;11.05;;;1.90;;
1721;SDS011;858;53.190;8.596;2023-04-25T10:41:02;4.68;;;1.80;;
1721;SDS011;858;53.190;8.596;2023-04-25T10:43:33;8.15;;;1.65;;
1721;SDS011;858;53.190;8.596;2023-04-25T10:46:01;4.80;;;2.20;;
1721;SDS011;858;53.190;8.596;2023-04-25T10:48:28;8.60;;;1.83;;
1721;SDS011;858;53.190;8.596;2023-04-25T10:51:06;8.65;;;2.13;;
1721;SDS011;858;53.190;8.596;2023-04-25T10:53:33;8.90;;;2.00;;
1721;SDS011;858;53.190;8.596;2023-04-25T10:55:59;9.30;;;2.67;;
1721;SDS011;858;53.190;8.596;2023-04-25T10:58:26;4.82;;;1.70;;
1721;SDS011;858;53.190;8.596;2023-04-25T11:00:52;7.70;;;1.90;;
1721;SDS011;858;53.190;8.596;2023-04-25T11:03:20;8.32;;;2.45;;
1721;SDS011;858;53.190;8.596;2023-04-25T11:05:47;8.65;;;2.53;;
1721;SDS011;858;53.190;8.596;2023-04-25T11:08:15;9.38;;;2.50;;
1721;SDS011;858;53.190;8.596;2023-04-25T11:10:46;11.15;;;2.25;;
1721;SDS011;858;53.190;8.596;2023-04-25T11:13:13;8.73;;;2.00;;
1721;SDS011;858;53.190;8.596;2023-04-25T11:15:39;8.18;;;2.08;;
1721;SDS011;858;53.190;8.596;2023-04-25T11:18:05;9.13;;;2.38;;
1721;SDS011;858;53.190;8.596;2023-04-25T11:20:33;7.38;;;1.90;;
1721;SDS011;858;53.190;8.596;2023-04-25T11:23:00;6.78;;;1.80;;
1721;SDS011;858;53.190;8.596;2023-04-25T11:25:26;6.80;;;2.08;;
1721;SDS011;858;53.190;8.596;2023-04-25T11:27:55;7.22;;;2.00;;
1721;SDS011;858;53.190;8.596;2023-04-25T11:30:23;6.57;;;1.90;;
1721;SDS011;858;53.190;8.596;2023-04-25T11:32:49;7.57;;;1.80;;
1721;SDS011;858;53.190;8.596;2023-04-25T11:35:17;5.25;;;1.90;;
1721;SDS011;858;53.190;8.596;2023-04-25T11:37:45;6.67;;;2.50;;
1721;SDS011;858;53.190;8.596;2023-04-25T11:40:11;8.27;;;2.50;;
1721;SDS011;858;53.190;8.596;2023-04-25T11:42:38;8.68;;;2.60;;
1721;SDS011;858;53.190;8.596;2023-04-25T11:45:05;3.35;;;1.40;;
1721;SDS011;858;53.190;8.596;2023-04-25T11:47:33;6.05;;;1.88;;
1721;SDS011;858;53.190;8.596;2023-04-25T11:50:00;9.10;;;1.87;;
1721;SDS011;858;53.190;8.596;2023-04-25T11:52:35;3.67;;;1.37;;
1721;SDS011;858;53.190;8.596;2023-04-25T11:55:02;3.00;;;1.20;;
1721;SDS011;858;53.190;8.596;2023-04-25T11:57:30;5.03;;;1.52;;
1721;SDS011;858;53.190;8.596;2023-04-25T12:00:04;6.32;;;1.80;;
1721;SDS011;858;53.190;8.596;2023-04-25T12:02:31;6.90;;;2.05;;
1721;SDS011;858;53.190;8.596;2023-04-25T12:04:58;3.97;;;1.50;;
1721;SDS011;858;53.190;8.596;2023-04-25T12:07:27;6.70;;;1.63;;
1721;SDS011;858;53.190;8.596;2023-04-25T12:09:55;4.60;;;1.40;;
1721;SDS011;858;53.190;8.596;2023-04-25T12:12:23;6.90;;;1.80;;
1721;SDS011;858;53.190;8.596;2023-04-25T12:14:52;5.55;;;1.60;;
1721;SDS011;858;53.190;8.596;2023-04-25T12:17:20;8.43;;;1.85;;
1721;SDS011;858;53.190;8.596;2023-04-25T12:19:48;5.15;;;1.70;;
1721;SDS011;858;53.190;8.596;2023-04-25T12:22:21;6.63;;;2.10;;
1721;SDS011;858;53.190;8.596;2023-04-25T12:24:48;9.35;;;2.17;;
1721;SDS011;858;53.190;8.596;2023-04-25T12:27:14;6.20;;;1.52;;
1721;SDS011;858;53.190;8.596;2023-04-25T12:29:51;5.50;;;2.00;;
1721;SDS011;858;53.190;8.596;2023-04-25T12:32:17;5.37;;;2.10;;
1721;SDS011;858;53.190;8.596;2023-04-25T12:34:44;8.52;;;2.00;;
1721;SDS011;858;53.190;8.596;2023-04-25T12:37:11;8.88;;;1.95;;
1721;SDS011;858;53.190;8.596;2023-04-25T12:39:37;10.18;;;2.05;;
1721;SDS011;858;53.190;8.596;2023-04-25T12:42:03;5.15;;;1.98;;
1721;SDS011;858;53.190;8.596;2023-04-25T12:44:32;9.32;;;2.00;;
1721;SDS011;858;53.190;8.596;2023-04-25T12:47:00;5.03;;;1.90;;
1721;SDS011;858;53.190;8.596;2023-04-25T12:49:28;4.68;;;2.10;;
1721;SDS011;858;53.190;8.596;2023-04-25T12:51:54;5.25;;;1.80;;
1721;SDS011;858;53.190;8.596;2023-04-25T12:54:20;5.15;;;1.70;;
1721;SDS011;858;53.190;8.596;2023-04-25T12:56:46;4.82;;;1.80;;
1721;SDS011;858;53.190;8.596;2023-04-25T12:59:14;6.75;;;2.13;;
1721;SDS011;858;53.190;8.596;2023-04-25T13:01:40;6.40;;;1.90;;
1721;SDS011;858;53.190;8.596;2023-04-25T13:04:09;8.02;;;2.10;;
1721;SDS011;858;53.190;8.596;2023-04-25T13:06:35;7.72;;;2.22;;
1721;SDS011;858;53.190;8.596;2023-04-25T13:09:03;7.50;;;2.80;;
1721;SDS011;858;53.190;8.596;2023-04-25T13:11:29;9.25;;;2.53;;
1721;SDS011;858;53.190;8.596;2023-04-25T13:13:56;6.10;;;1.90;;
1721;SDS011;858;53.190;8.596;2023-04-25T13:16:22;9.50;;;2.20;;
1721;SDS011;858;53.190;8.596;2023-04-25T13:18:48;4.95;;;1.75;;
1721;SDS011;858;53.190;8.596;2023-04-25T13:21:16;4.70;;;1.60;;
1721;SDS011;858;53.190;8.596;2023-04-25T13:23:43;7.07;;;2.03;;
1721;SDS011;858;53.190;8.596;2023-04-25T13:26:11;6.53;;;2.20;;
1721;SDS011;858;53.190;8.596;2023-04-25T13:28:38;4.57;;;1.60;;
1721;SDS011;858;53.190;8.596;2023-04-25T13:31:05;3.95;;;1.73;;
1721;SDS011;858;53.190;8.596;2023-04-25T13:33:31;5.77;;;1.80;;
1721;SDS011;858;53.190;8.596;2023-04-25T13:35:58;5.55;;;2.15;;
1721;SDS011;858;53.190;8.596;2023-04-25T13:38:25;5.55;;;1.67;;
1721;SDS011;858;53.190;8.596;2023-04-25T13:40:52;6.00;;;1.77;;
1721;SDS011;858;53.190;8.596;2023-04-25T13:43:18;7.68;;;1.80;;
1721;SDS011;858;53.190;8.596;2023-04-25T13:45:45;3.50;;;1.67;;
1721;SDS011;858;53.190;8.596;2023-04-25T13:48:12;4.63;;;1.90;;
1721;SDS011;858;53.190;8.596;2023-04-25T13:50:38;7.75;;;1.80;;
1721;SDS011;858;53.190;8.596;2023-04-25T13:53:06;6.90;;;1.90;;
1721;SDS011;858;53.190;8.596;2023-04-25T13:55:34;3.70;;;1.73;;
1721;SDS011;858;53.190;8.596;2023-04-25T13:58:01;6.80;;;1.50;;
1721;SDS011;858;53.190;8.596;2023-04-25T14:00:32;4.88;;;1.40;;
1721;SDS011;858;53.190;8.596;2023-04-25T14:02:58;4.20;;;1.63;;
1721;SDS011;858;53.190;8.596;2023-04-25T14:05:25;6.95;;;1.55;;
1721;SDS011;858;53.190;8.596;2023-04-25T14:07:52;5.00;;;1.85;;
1721;SDS011;858;53.190;8.596;2023-04-25T14:10:18;5.00;;;1.80;;
1721;SDS011;858;53.190;8.596;2023-04-25T14:12:47;10.05;;;2.70;;
1721;SDS011;858;53.190;8.596;2023-04-25T14:15:13;4.13;;;1.70;;
1721;SDS011;858;53.190;8.596;2023-04-25T14:17:40;4.93;;;1.80;;
1721;SDS011;858;53.190;8.596;2023-04-25T14:20:08;4.95;;;1.55;;
1721;SDS011;858;53.190;8.596;2023-04-25T14:22:35;7.07;;;1.50;;
1721;SDS011;858;53.190;8.596;2023-04-25T14:25:06;2.60;;;1.30;;
1721;SDS011;858;53.190;8.596;2023-04-25T14:27:33;7.50;;;1.70;;
1721;SDS011;858;53.190;8.596;2023-04-25T14:30:00;6.60;;;1.77;;
1721;SDS011;858;53.190;8.596;2023-04-25T14:32:27;6.47;;;2.08;;
1721;SDS011;858;53.190;8.596;2023-04-25T14:34:53;5.22;;;1.60;;
1721;SDS011;858;53.190;8.596;2023-04-25T14:37:19;5.60;;;2.40;;
1721;SDS011;858;53.190;8.596;2023-04-25T14:39:46;5.18;;;1.70;;
1721;SDS011;858;53.190;8.596;2023-04-25T14:42:12;7.22;;;1.80;;
1721;SDS011;858;53.190;8.596;2023-04-25T14:44:38;5.50;;;1.50;;
1721;SDS011;858;53.190;8.596;2023-04-25T14:47:06;6.50;;;2.10;;
1721;SDS011;858;53.190;8.596;2023-04-25T14:49:32;6.47;;;2.00;;
1721;SDS011;858;53.190;8.596;2023-04-25T14:51:59;8.88;;;1.90;;
1721;SDS011;858;53.190;8.596;2023-04-25T14:54:26;4.70;;;1.70;;
1721;SDS011;858;53.190;8.596;2023-04-25T14:56:52;7.17;;;2.10;;
1721;SDS011;858;53.190;8.596;2023-04-25T14:59:18;5.53;;;2.15;;
1721;SDS011;858;53.190;8.596;2023-04-25T15:01:45;4.55;;;1.60;;
1721;SDS011;858;53.190;8.596;2023-04-25T15:04:13;6.68;;;1.88;;
1721;SDS011;858;53.190;8.596;2023-04-25T15:06:40;5.22;;;1.90;;
1721;SDS011;858;53.190;8.596;2023-04-25T15:09:06;5.50;;;2.00;;
1721;SDS011;858;53.190;8.596;2023-04-25T15:11:33;4.45;;;2.17;;
1721;SDS011;858;53.190;8.596;2023-04-25T15:14:00;3.13;;;1.90;;
1721;SDS011;858;53.190;8.596;2023-04-25T15:16:26;6.45;;;2.22;;
1721;SDS011;858;53.190;8.596;2023-04-25T15:18:53;6.90;;;2.00;;
1721;SDS011;858;53.190;8.596;2023-04-25T15:21:20;6.93;;;2.47;;
1721;SDS011;858;53.190;8.596;2023-04-25T15:23:48;5.63;;;2.15;;